Time;durP1;ratioP1;P1;durP2;ratioP2;P2;SDS_P1;SDS_P2;PMS_P1;PMS_P2;Temp;Humidity;BMP_temperature;BMP_pressure;BME280_temperature;BME280_humidity;BME280_pressure;Samples;Min_cycle;Max_cycle;Signal;HPM_P1;HPM_P2
2022/04/07 00:01:01;;;;;;;13.90;10.13;;;;;;;;;;4929058;29;20058;-57
2022/04/07 00:03:27;;;;;;;13.27;9.93;;;;;;;;;;4918292;29;20802;-60
2022/04/07 00:05:52;;;;;;;14.73;9.75;;;;;;;;;;4941272;29;20275;-60
2022/04/07 00:08:17;;;;;;;13.67;9.67;;;;;;;;;;4946280;29;20019;-60
2022/04/07 00:10:43;;;;;;;15.32;12.15;;;;;;;;;;4946279;29;20359;-59
2022/04/07 00:13:08;;;;;;;12.25;8.43;;;;;;;;;;4945923;29;20419;-59
2022/04/07 00:15:33;;;;;;;13.47;8.47;;;;;;;;;;4934432;29;20023;-60
2022/04/07 00:17:59;;;;;;;15.07;11.20;;;;;;;;;;4941243;29;20809;-59
2022/04/07 00:20:24;;;;;;;13.98;8.57;;;;;;;;;;4945833;29;20027;-57
2022/04/07 00:22:50;;;;;;;14.27;8.88;;;;;;;;;;4945857;29;20043;-58
2022/04/07 00:25:15;;;;;;;13.07;8.95;;;;;;;;;;4946042;29;20042;-60
2022/04/07 00:27:40;;;;;;;14.50;10.17;;;;;;;;;;4945928;29;20027;-59
2022/04/07 00:30:06;;;;;;;15.85;9.95;;;;;;;;;;4945969;29;20269;-60
2022/04/07 00:32:31;;;;;;;15.50;11.60;;;;;;;;;;4928368;29;20011;-59
2022/04/07 00:34:56;;;;;;;15.20;11.80;;;;;;;;;;4939545;29;20016;-58
2022/04/07 00:37:23;;;;;;;17.67;12.73;;;;;;;;;;4919574;29;20505;-56
2022/04/07 00:39:48;;;;;;;14.88;11.02;;;;;;;;;;4945482;28;20274;-57
2022/04/07 00:42:13;;;;;;;17.02;11.07;;;;;;;;;;4949601;28;20090;-57
2022/04/07 00:44:39;;;;;;;16.23;11.43;;;;;;;;;;4948889;28;20023;-59
2022/04/07 00:47:04;;;;;;;32.90;29.73;;;;;;;;;;4949529;29;21099;-58
2022/04/07 00:49:29;;;;;;;25.52;22.95;;;;;;;;;;4949619;29;20357;-58
2022/04/07 00:51:55;;;;;;;28.27;25.63;;;;;;;;;;4949880;29;20038;-60
2022/04/07 00:54:20;;;;;;;28.15;25.38;;;;;;;;;;4949154;29;20015;-59
2022/04/07 00:56:45;;;;;;;27.70;24.93;;;;;;;;;;4949605;29;20027;-58
2022/04/07 00:59:11;;;;;;;29.70;26.93;;;;;;;;;;4949231;29;20326;-57
2022/04/07 01:01:36;;;;;;;23.52;21.23;;;;;;;;;;4932175;29;20939;-59
2022/04/07 01:04:01;;;;;;;28.37;25.57;;;;;;;;;;4964278;28;20466;-57
2022/04/07 01:06:27;;;;;;;25.27;22.92;;;;;;;;;;4950229;28;20275;-55
2022/04/07 01:08:53;;;;;;;32.00;28.80;;;;;;;;;;4949133;29;20494;-60
2022/04/07 01:11:18;;;;;;;31.65;28.65;;;;;;;;;;4949619;29;20026;-57
2022/04/07 01:13:44;;;;;;;26.87;24.30;;;;;;;;;;4948846;29;20054;-58
2022/04/07 01:16:10;;;;;;;17.52;12.57;;;;;;;;;;4946916;29;20279;-58
2022/04/07 01:18:35;;;;;;;26.65;23.75;;;;;;;;;;4931530;29;20019;-59
2022/04/07 01:21:00;;;;;;;24.20;21.75;;;;;;;;;;4949059;29;20027;-60
2022/04/07 01:23:26;;;;;;;26.70;23.93;;;;;;;;;;4935644;29;20534;-59
2022/04/07 01:25:51;;;;;;;18.20;15.53;;;;;;;;;;4931537;29;20301;-60
2022/04/07 01:28:16;;;;;;;31.77;28.73;;;;;;;;;;4931377;29;20290;-58
2022/04/07 01:30:41;;;;;;;24.57;22.07;;;;;;;;;;4948607;29;20328;-58
2022/04/07 01:33:06;;;;;;;21.23;19.07;;;;;;;;;;4948722;29;20346;-57
2022/04/07 01:35:32;;;;;;;21.27;18.93;;;;;;;;;;4920652;29;20330;-54
2022/04/07 01:37:57;;;;;;;26.37;23.80;;;;;;;;;;4944014;29;20809;-60
2022/04/07 01:40:24;;;;;;;20.25;18.08;;;;;;;;;;4930094;29;20382;-58
2022/04/07 01:42:51;;;;;;;24.67;22.20;;;;;;;;;;4954064;28;20026;-58
2022/04/07 01:45:16;;;;;;;25.45;22.85;;;;;;;;;;4958812;28;20036;-60
2022/04/07 01:47:42;;;;;;;26.03;23.60;;;;;;;;;;4948471;29;20521;-59
2022/04/07 01:50:08;;;;;;;28.05;25.27;;;;;;;;;;4948395;29;20334;-58
2022/04/07 01:52:38;;;;;;;27.90;25.20;;;;;;;;;;4947289;28;20011;-60
2022/04/07 01:55:03;;;;;;;19.77;17.65;;;;;;;;;;4941191;29;20102;-60
2022/04/07 01:57:28;;;;;;;27.27;24.58;;;;;;;;;;4941952;29;20115;-57
2022/04/07 01:59:54;;;;;;;25.23;22.63;;;;;;;;;;4936000;29;20063;-58
2022/04/07 02:02:21;;;;;;;38.03;34.27;;;;;;;;;;4952867;28;20046;-55
2022/04/07 02:04:59;;;;;;;39.22;35.60;;;;;;;;;;4949411;29;20271;-57
2022/04/07 02:07:31;;;;;;;41.05;37.20;;;;;;;;;;4948409;29;20034;-55
2022/04/07 02:09:56;;;;;;;37.95;34.33;;;;;;;;;;4947875;29;20601;-59
2022/04/07 02:12:21;;;;;;;16.65;12.50;;;;;;;;;;4947889;29;20041;-60
2022/04/07 02:14:47;;;;;;;17.13;14.52;;;;;;;;;;4947909;29;20738;-59
2022/04/07 02:17:13;;;;;;;17.17;15.30;;;;;;;;;;4948228;29;20031;-59
2022/04/07 02:19:38;;;;;;;20.75;18.65;;;;;;;;;;4947857;29;20427;-54
2022/04/07 02:22:03;;;;;;;19.10;16.33;;;;;;;;;;4947718;29;20035;-57
2022/04/07 02:24:30;;;;;;;23.30;20.90;;;;;;;;;;4950812;28;20386;-58
2022/04/07 02:26:56;;;;;;;17.58;12.93;;;;;;;;;;4930491;29;20430;-59
2022/04/07 02:29:21;;;;;;;21.83;19.53;;;;;;;;;;4947419;29;20035;-59
2022/04/07 02:31:46;;;;;;;14.70;9.90;;;;;;;;;;4947424;29;20787;-60
2022/04/07 02:34:11;;;;;;;21.97;19.67;;;;;;;;;;4945317;29;20271;-55
2022/04/07 02:36:37;;;;;;;21.47;19.27;;;;;;;;;;4932214;29;20281;-60
2022/04/07 02:39:02;;;;;;;24.37;21.97;;;;;;;;;;4947415;29;20274;-59
2022/04/07 02:41:28;;;;;;;19.73;15.57;;;;;;;;;;4947110;29;20678;-59
2022/04/07 02:43:55;;;;;;;20.50;18.40;;;;;;;;;;4946958;28;20024;-60
2022/04/07 02:46:20;;;;;;;21.60;19.40;;;;;;;;;;4946843;29;20812;-59
2022/04/07 02:48:45;;;;;;;25.43;22.83;;;;;;;;;;4947215;29;20086;-53
2022/04/07 02:51:11;;;;;;;24.58;22.13;;;;;;;;;;4947329;29;20670;-58
2022/04/07 02:53:37;;;;;;;21.40;19.20;;;;;;;;;;4947135;29;20089;-57
2022/04/07 02:56:02;;;;;;;19.15;16.63;;;;;;;;;;4929722;29;20293;-58
2022/04/07 02:58:27;;;;;;;26.63;23.92;;;;;;;;;;4946516;29;20106;-56
2022/04/07 03:00:53;;;;;;;22.20;19.53;;;;;;;;;;4946694;29;20046;-57
2022/04/07 03:03:18;;;;;;;18.63;16.38;;;;;;;;;;4955161;28;20274;-57
2022/04/07 03:05:43;;;;;;;20.97;18.67;;;;;;;;;;4954140;28;20031;-58
2022/04/07 03:08:08;;;;;;;25.23;22.73;;;;;;;;;;4946760;29;20267;-58
2022/04/07 03:10:34;;;;;;;30.93;27.97;;;;;;;;;;4946561;29;20019;-57
2022/04/07 03:12:59;;;;;;;27.13;24.47;;;;;;;;;;4946858;29;20275;-59
2022/04/07 03:15:24;;;;;;;31.20;28.13;;;;;;;;;;4944408;29;20267;-59
2022/04/07 03:17:49;;;;;;;27.17;24.47;;;;;;;;;;4945846;29;20414;-55
2022/04/07 03:20:14;;;;;;;25.07;22.73;;;;;;;;;;4946651;29;20277;-59
2022/04/07 03:22:40;;;;;;;22.97;20.73;;;;;;;;;;4946225;29;20842;-57
2022/04/07 03:25:05;;;;;;;25.63;23.20;;;;;;;;;;4944878;29;20671;-59
2022/04/07 03:27:31;;;;;;;28.27;25.35;;;;;;;;;;4929733;29;20779;-57
2022/04/07 03:29:57;;;;;;;20.42;18.33;;;;;;;;;;4946232;29;20042;-60
2022/04/07 03:32:22;;;;;;;21.73;19.47;;;;;;;;;;4945983;29;20054;-58
2022/04/07 03:34:47;;;;;;;18.08;16.15;;;;;;;;;;4941311;29;20287;-60
2022/04/07 03:37:14;;;;;;;15.70;11.07;;;;;;;;;;4935036;29;20027;-58
2022/04/07 03:39:40;;;;;;;19.02;17.02;;;;;;;;;;4945486;29;20358;-55
2022/04/07 03:42:05;;;;;;;22.00;19.65;;;;;;;;;;4946300;29;20118;-60
2022/04/07 03:44:30;;;;;;;19.60;17.55;;;;;;;;;;4945687;28;20418;-59
2022/04/07 03:46:56;;;;;;;19.77;16.25;;;;;;;;;;4945949;29;20042;-58
2022/04/07 03:49:21;;;;;;;25.23;22.80;;;;;;;;;;4928810;29;20483;-59
2022/04/07 03:51:47;;;;;;;17.60;15.60;;;;;;;;;;4946327;29;20016;-60
2022/04/07 03:54:12;;;;;;;16.77;13.30;;;;;;;;;;4945480;28;20033;-59
2022/04/07 03:56:37;;;;;;;19.17;16.83;;;;;;;;;;4945295;29;20535;-59
2022/04/07 03:59:03;;;;;;;15.90;13.07;;;;;;;;;;4945856;29;20035;-56
2022/04/07 04:01:28;;;;;;;17.05;14.95;;;;;;;;;;4945522;29;20526;-57
2022/04/07 04:03:53;;;;;;;21.60;19.42;;;;;;;;;;4958511;28;20030;-59
2022/04/07 04:06:19;;;;;;;15.95;13.20;;;;;;;;;;4948394;28;20039;-59
2022/04/07 04:08:44;;;;;;;16.23;14.07;;;;;;;;;;4944991;28;20023;-54
2022/04/07 04:11:09;;;;;;;17.80;16.00;;;;;;;;;;4927432;29;20027;-53
2022/04/07 04:13:34;;;;;;;17.52;15.70;;;;;;;;;;4945494;28;20114;-55
2022/04/07 04:16:01;;;;;;;18.33;16.35;;;;;;;;;;4944426;28;20023;-55
2022/04/07 04:18:26;;;;;;;15.18;8.35;;;;;;;;;;4944732;28;20052;-56
2022/04/07 04:20:52;;;;;;;15.13;11.23;;;;;;;;;;4945266;28;20160;-54
2022/04/07 04:23:17;;;;;;;15.70;11.80;;;;;;;;;;4945089;28;20055;-55
2022/04/07 04:25:42;;;;;;;16.10;11.07;;;;;;;;;;4944829;28;20506;-55
2022/04/07 04:28:07;;;;;;;14.27;12.60;;;;;;;;;;4945589;28;20038;-54
2022/04/07 04:30:33;;;;;;;19.37;14.67;;;;;;;;;;4945242;28;20864;-55
2022/04/07 04:32:58;;;;;;;16.20;13.10;;;;;;;;;;4944808;28;20279;-52
2022/04/07 04:35:23;;;;;;;14.82;8.95;;;;;;;;;;4945042;28;20358;-53
2022/04/07 04:37:48;;;;;;;14.07;11.70;;;;;;;;;;4948075;28;20031;-55
2022/04/07 04:40:15;;;;;;;15.70;12.00;;;;;;;;;;4943447;28;22012;-54
2022/04/07 04:42:41;;;;;;;16.55;10.80;;;;;;;;;;4942660;28;20267;-56
2022/04/07 04:45:07;;;;;;;14.23;12.00;;;;;;;;;;4946714;28;20019;-58
2022/04/07 04:47:32;;;;;;;13.80;8.82;;;;;;;;;;4945388;29;20074;-55
2022/04/07 04:49:57;;;;;;;15.43;10.67;;;;;;;;;;4945826;29;20047;-55
2022/04/07 04:52:23;;;;;;;16.20;12.27;;;;;;;;;;4945014;28;20279;-55
2022/04/07 04:54:48;;;;;;;14.70;10.87;;;;;;;;;;4944875;28;20934;-56
2022/04/07 04:57:13;;;;;;;13.10;8.33;;;;;;;;;;4945331;28;20382;-55
2022/04/07 04:59:38;;;;;;;13.00;9.73;;;;;;;;;;4945588;28;20279;-55
2022/04/07 05:02:04;;;;;;;13.70;8.70;;;;;;;;;;4945229;29;20295;-55
2022/04/07 05:04:29;;;;;;;11.13;6.50;;;;;;;;;;4961658;28;20278;-55
2022/04/07 05:06:55;;;;;;;10.70;7.72;;;;;;;;;;4946094;29;20027;-54
2022/04/07 05:09:20;;;;;;;10.80;6.70;;;;;;;;;;4947767;29;20081;-55
2022/04/07 05:11:45;;;;;;;12.77;8.70;;;;;;;;;;4946749;29;20286;-53
2022/04/07 05:14:12;;;;;;;12.93;8.60;;;;;;;;;;4948855;29;21054;-54
2022/04/07 05:16:37;;;;;;;14.50;10.63;;;;;;;;;;4944310;28;20278;-53
2022/04/07 05:19:03;;;;;;;17.83;12.70;;;;;;;;;;4948722;28;20023;-53
2022/04/07 05:21:28;;;;;;;15.32;9.48;;;;;;;;;;4951360;28;20504;-54
2022/04/07 05:23:53;;;;;;;14.65;9.77;;;;;;;;;;4946034;28;20134;-55
2022/04/07 05:26:19;;;;;;;11.45;7.47;;;;;;;;;;4946390;28;20455;-57
2022/04/07 05:28:45;;;;;;;13.40;8.30;;;;;;;;;;4948784;29;20011;-55
2022/04/07 05:31:10;;;;;;;13.13;7.57;;;;;;;;;;4946421;28;20031;-58
2022/04/07 05:33:36;;;;;;;12.30;7.50;;;;;;;;;;4948005;28;20027;-56
2022/04/07 05:36:01;;;;;;;12.25;6.10;;;;;;;;;;4947716;28;20027;-58
2022/04/07 05:38:28;;;;;;;14.47;7.93;;;;;;;;;;4949030;29;20015;-57
2022/04/07 05:40:53;;;;;;;8.93;5.05;;;;;;;;;;4948273;28;20307;-56
2022/04/07 05:43:18;;;;;;;10.23;5.40;;;;;;;;;;4949340;29;20419;-58
2022/04/07 05:45:45;;;;;;;11.27;5.50;;;;;;;;;;4931648;29;20410;-55
2022/04/07 05:48:13;;;;;;;10.63;5.68;;;;;;;;;;4930933;29;20275;-57
2022/04/07 05:50:38;;;;;;;13.45;6.18;;;;;;;;;;4944891;29;20059;-54
2022/04/07 05:53:04;;;;;;;10.70;5.70;;;;;;;;;;4943798;28;20015;-55
2022/04/07 05:55:30;;;;;;;10.93;5.60;;;;;;;;;;4944081;28;20102;-57
2022/04/07 05:57:55;;;;;;;9.05;4.70;;;;;;;;;;4944743;28;20057;-56
2022/04/07 06:00:21;;;;;;;10.63;5.50;;;;;;;;;;4947471;28;20756;-55
2022/04/07 06:02:48;;;;;;;11.73;6.32;;;;;;;;;;4942135;28;20299;-55
2022/04/07 06:05:18;;;;;;;10.85;5.32;;;;;;;;;;4943420;28;20027;-56
2022/04/07 06:07:44;;;;;;;11.00;6.13;;;;;;;;;;4945147;28;20196;-55
2022/04/07 06:10:10;;;;;;;10.43;5.78;;;;;;;;;;4945242;29;20031;-57
2022/04/07 06:12:35;;;;;;;10.70;5.32;;;;;;;;;;4946575;28;20030;-52
2022/04/07 06:15:01;;;;;;;13.70;7.07;;;;;;;;;;4945304;29;20027;-56
2022/04/07 06:17:34;;;;;;;11.63;6.13;;;;;;;;;;4946187;28;20031;-56
2022/04/07 06:20:00;;;;;;;10.57;5.82;;;;;;;;;;4944586;28;20282;-55
2022/04/07 06:22:25;;;;;;;11.82;6.20;;;;;;;;;;4945186;28;20039;-56
2022/04/07 06:24:50;;;;;;;11.30;5.30;;;;;;;;;;4947878;28;20522;-56
2022/04/07 06:27:16;;;;;;;10.17;6.00;;;;;;;;;;4947514;29;21159;-55
2022/04/07 06:29:41;;;;;;;10.90;7.80;;;;;;;;;;4947891;29;20042;-55
2022/04/07 06:32:07;;;;;;;10.77;6.05;;;;;;;;;;4947315;28;20426;-54
2022/04/07 06:34:32;;;;;;;10.48;6.85;;;;;;;;;;4945367;29;20122;-54
2022/04/07 06:36:57;;;;;;;10.52;6.95;;;;;;;;;;4947969;29;20027;-55
2022/04/07 06:39:23;;;;;;;13.60;8.57;;;;;;;;;;4946015;28;20109;-55
2022/04/07 06:41:49;;;;;;;13.55;7.35;;;;;;;;;;4928702;29;20298;-54
2022/04/07 06:44:14;;;;;;;12.07;9.43;;;;;;;;;;4944967;28;20631;-56
2022/04/07 06:46:39;;;;;;;9.82;5.30;;;;;;;;;;4946924;28;20038;-56
2022/04/07 06:49:05;;;;;;;11.97;7.37;;;;;;;;;;4945405;28;20019;-56
2022/04/07 06:51:30;;;;;;;14.40;10.07;;;;;;;;;;4943206;28;20282;-54
2022/04/07 06:53:55;;;;;;;12.25;8.80;;;;;;;;;;4947995;28;20026;-55
2022/04/07 06:56:21;;;;;;;15.17;9.30;;;;;;;;;;4928986;28;20411;-55
2022/04/07 06:58:47;;;;;;;17.15;13.48;;;;;;;;;;4944407;28;20302;-56
2022/04/07 07:01:12;;;;;;;17.73;15.93;;;;;;;;;;4944641;28;20059;-55
2022/04/07 07:03:37;;;;;;;18.27;16.33;;;;;;;;;;4945300;28;20066;-54
2022/04/07 07:06:03;;;;;;;14.45;12.95;;;;;;;;;;4946141;29;20035;-56
2022/04/07 07:08:28;;;;;;;25.17;22.87;;;;;;;;;;4947690;29;20529;-57
2022/04/07 07:10:53;;;;;;;29.17;26.23;;;;;;;;;;4945686;29;20279;-54
2022/04/07 07:13:20;;;;;;;32.50;29.58;;;;;;;;;;4947308;29;20403;-52
2022/04/07 07:15:46;;;;;;;33.45;30.42;;;;;;;;;;4942850;29;20035;-56
2022/04/07 07:18:12;;;;;;;27.50;24.77;;;;;;;;;;4945550;29;20042;-55
2022/04/07 07:20:37;;;;;;;30.80;27.73;;;;;;;;;;4944231;29;20027;-55
2022/04/07 07:23:02;;;;;;;18.33;16.77;;;;;;;;;;4945210;28;20306;-55
2022/04/07 07:25:31;;;;;;;12.50;10.43;;;;;;;;;;4943820;29;20029;-55
2022/04/07 07:27:56;;;;;;;15.18;13.63;;;;;;;;;;4944701;29;20042;-54
2022/04/07 07:30:22;;;;;;;18.15;16.35;;;;;;;;;;4946512;29;20023;-54
2022/04/07 07:32:47;;;;;;;19.05;17.27;;;;;;;;;;4946607;29;20693;-56
2022/04/07 07:35:13;;;;;;;17.58;15.88;;;;;;;;;;4944138;29;20050;-56
2022/04/07 07:37:46;;;;;;;21.88;19.52;;;;;;;;;;4927200;28;20078;-54
2022/04/07 07:40:11;;;;;;;18.15;16.48;;;;;;;;;;4944429;28;20046;-55
2022/04/07 07:42:37;;;;;;;14.02;10.93;;;;;;;;;;4943952;28;20488;-55
2022/04/07 07:45:03;;;;;;;13.65;12.25;;;;;;;;;;4945080;28;20027;-54
2022/04/07 07:47:28;;;;;;;16.67;13.80;;;;;;;;;;4943141;28;20043;-54
2022/04/07 07:49:54;;;;;;;12.80;8.70;;;;;;;;;;4943910;28;20027;-56
2022/04/07 07:52:19;;;;;;;10.77;9.55;;;;;;;;;;4946066;28;21100;-56
2022/04/07 07:54:44;;;;;;;10.80;7.18;;;;;;;;;;4927145;29;20034;-55
2022/04/07 07:57:10;;;;;;;10.57;7.83;;;;;;;;;;4935963;29;20023;-55
2022/04/07 07:59:35;;;;;;;9.63;7.55;;;;;;;;;;4944368;29;20090;-54
2022/04/07 08:02:00;;;;;;;10.57;6.07;;;;;;;;;;4943987;28;20039;-56
2022/04/07 08:04:26;;;;;;;10.23;5.47;;;;;;;;;;4962042;28;20324;-56
2022/04/07 08:06:51;;;;;;;9.83;5.67;;;;;;;;;;4944820;29;20107;-54
2022/04/07 08:09:16;;;;;;;12.03;6.73;;;;;;;;;;4945331;29;20109;-51
2022/04/07 08:11:41;;;;;;;10.97;7.00;;;;;;;;;;4944918;29;20070;-54
2022/04/07 08:14:07;;;;;;;11.50;6.07;;;;;;;;;;4944730;29;20058;-54
2022/04/07 08:16:33;;;;;;;12.02;6.90;;;;;;;;;;4934805;29;20038;-55
2022/04/07 08:18:58;;;;;;;11.55;6.90;;;;;;;;;;4945499;29;20023;-54
2022/04/07 08:21:24;;;;;;;10.60;7.75;;;;;;;;;;4944273;28;20109;-55
2022/04/07 08:23:49;;;;;;;11.55;7.13;;;;;;;;;;4945086;28;20499;-55
2022/04/07 08:26:15;;;;;;;12.33;7.97;;;;;;;;;;4944356;29;20025;-56
2022/04/07 08:28:41;;;;;;;13.80;6.95;;;;;;;;;;4943557;28;20305;-54
2022/04/07 08:31:06;;;;;;;10.05;5.82;;;;;;;;;;4945821;29;20478;-52
2022/04/07 08:33:31;;;;;;;11.13;7.37;;;;;;;;;;4944633;29;20111;-56
2022/04/07 08:35:56;;;;;;;10.40;6.60;;;;;;;;;;4942983;28;20058;-55
2022/04/07 08:38:22;;;;;;;10.40;5.28;;;;;;;;;;4945449;29;20271;-55
2022/04/07 08:40:49;;;;;;;10.75;5.65;;;;;;;;;;4944530;29;20037;-56
2022/04/07 08:43:14;;;;;;;9.45;6.00;;;;;;;;;;4953037;28;20034;-51
2022/04/07 08:45:39;;;;;;;12.70;6.35;;;;;;;;;;4936057;29;20491;-54
2022/04/07 08:48:05;;;;;;;11.57;7.55;;;;;;;;;;4924761;29;20035;-56
2022/04/07 08:50:30;;;;;;;9.68;5.35;;;;;;;;;;4944113;29;20024;-56
2022/04/07 08:52:55;;;;;;;11.27;6.47;;;;;;;;;;4927577;29;20526;-55
2022/04/07 08:55:21;;;;;;;12.77;7.80;;;;;;;;;;4943452;29;20514;-55
2022/04/07 08:57:46;;;;;;;12.17;7.80;;;;;;;;;;4926889;29;20576;-54
2022/04/07 09:00:11;;;;;;;11.27;7.70;;;;;;;;;;4945153;29;20283;-58
2022/04/07 09:02:37;;;;;;;11.75;8.73;;;;;;;;;;4944546;28;20101;-55
2022/04/07 09:05:03;;;;;;;11.23;5.88;;;;;;;;;;4947646;29;20491;-56
2022/04/07 09:07:32;;;;;;;9.88;7.38;;;;;;;;;;4932978;29;20523;-55
2022/04/07 09:09:59;;;;;;;13.32;6.72;;;;;;;;;;4948751;29;20122;-54
2022/04/07 09:12:25;;;;;;;10.35;6.47;;;;;;;;;;4946753;28;20032;-56
2022/04/07 09:14:54;;;;;;;10.37;5.57;;;;;;;;;;4946666;28;20028;-57
2022/04/07 09:17:19;;;;;;;10.57;5.32;;;;;;;;;;4931486;29;20287;-55
2022/04/07 09:19:45;;;;;;;18.55;8.20;;;;;;;;;;4948898;28;20506;-57
2022/04/07 09:22:11;;;;;;;16.67;9.63;;;;;;;;;;4935938;28;20045;-58
2022/04/07 09:24:36;;;;;;;14.15;9.88;;;;;;;;;;4954233;28;20794;-54
2022/04/07 09:27:02;;;;;;;17.50;11.63;;;;;;;;;;4952513;28;20023;-55
2022/04/07 09:29:38;;;;;;;15.45;10.75;;;;;;;;;;4949590;28;20078;-58
2022/04/07 09:32:04;;;;;;;16.50;12.55;;;;;;;;;;4948766;28;20031;-57
2022/04/07 09:34:30;;;;;;;13.82;8.38;;;;;;;;;;4948364;28;20065;-59
2022/04/07 09:37:05;;;;;;;12.40;8.77;;;;;;;;;;4949267;29;20023;-55
2022/04/07 09:39:31;;;;;;;20.90;13.45;;;;;;;;;;4948276;28;20031;-58
2022/04/07 09:42:04;;;;;;;17.25;10.45;;;;;;;;;;4948634;28;20047;-57
2022/04/07 09:44:36;;;;;;;13.95;10.00;;;;;;;;;;4947006;28;20063;-58
2022/04/07 09:47:08;;;;;;;14.75;13.20;;;;;;;;;;4948267;28;20049;-57
2022/04/07 09:49:33;;;;;;;17.80;11.82;;;;;;;;;;4931552;29;20027;-57
2022/04/07 09:51:59;;;;;;;19.27;15.97;;;;;;;;;;4915389;28;20182;-57
2022/04/07 09:54:25;;;;;;;16.42;10.55;;;;;;;;;;4947568;28;20283;-57
2022/04/07 09:56:50;;;;;;;17.25;14.57;;;;;;;;;;4930547;28;20463;-57
2022/04/07 09:59:17;;;;;;;15.98;13.88;;;;;;;;;;4947618;28;20050;-58
2022/04/07 10:01:43;;;;;;;21.85;19.20;;;;;;;;;;4930454;28;20047;-56
2022/04/07 10:04:09;;;;;;;21.35;19.20;;;;;;;;;;4947220;28;20558;-58
2022/04/07 10:06:34;;;;;;;11.77;10.38;;;;;;;;;;4947006;28;20031;-60
2022/04/07 10:09:01;;;;;;;17.40;15.63;;;;;;;;;;4947786;28;20026;-58
2022/04/07 10:11:26;;;;;;;24.75;22.48;;;;;;;;;;4946705;28;20058;-60
2022/04/07 10:13:51;;;;;;;28.97;26.20;;;;;;;;;;4929216;28;20046;-61
2022/04/07 10:16:17;;;;;;;29.93;26.93;;;;;;;;;;4928601;28;20345;-55
2022/04/07 10:18:42;;;;;;;21.75;19.85;;;;;;;;;;4929913;29;20290;-57
2022/04/07 10:21:07;;;;;;;29.77;27.10;;;;;;;;;;4947927;29;20121;-57
2022/04/07 10:23:33;;;;;;;25.77;23.37;;;;;;;;;;4949947;28;20485;-56
2022/04/07 10:25:58;;;;;;;26.60;24.20;;;;;;;;;;4947624;28;20282;-58
2022/04/07 10:28:24;;;;;;;29.50;26.90;;;;;;;;;;4930668;29;20027;-57
2022/04/07 10:30:50;;;;;;;30.55;26.80;;;;;;;;;;4947720;29;20051;-57
2022/04/07 10:33:33;;;;;;;31.85;28.90;;;;;;;;;;4947058;28;20035;-58
2022/04/07 10:35:58;;;;;;;42.63;38.60;;;;;;;;;;4930609;29;20035;-57
2022/04/07 10:38:37;;;;;;;54.97;49.30;;;;;;;;;;4947633;29;20486;-56
2022/04/07 10:41:02;;;;;;;46.90;42.45;;;;;;;;;;4947469;29;20907;-54
2022/04/07 10:43:27;;;;;;;55.53;49.58;;;;;;;;;;4956222;28;20031;-54
2022/04/07 10:46:01;;;;;;;62.10;53.83;;;;;;;;;;4955352;28;20030;-56
2022/04/07 10:48:30;;;;;;;25.05;22.77;;;;;;;;;;4947146;29;20283;-55
2022/04/07 10:50:57;;;;;;;39.97;36.28;;;;;;;;;;4947622;29;20011;-53
2022/04/07 10:53:24;;;;;;;41.75;37.95;;;;;;;;;;4947361;29;20485;-57
2022/04/07 10:55:53;;;;;;;45.80;41.35;;;;;;;;;;4935714;29;20455;-55
2022/04/07 10:58:19;;;;;;;49.97;45.15;;;;;;;;;;4943462;29;20031;-58
2022/04/07 11:00:44;;;;;;;45.10;40.55;;;;;;;;;;4946898;29;20034;-58
2022/04/07 11:03:15;;;;;;;40.45;36.70;;;;;;;;;;4946559;28;20490;-59
2022/04/07 11:05:53;;;;;;;48.03;43.33;;;;;;;;;;4947414;29;20023;-58
2022/04/07 11:08:22;;;;;;;49.58;44.78;;;;;;;;;;4947644;29;20105;-54
2022/04/07 11:10:48;;;;;;;52.58;47.35;;;;;;;;;;4947003;28;20027;-54
2022/04/07 11:13:13;;;;;;;49.00;44.20;;;;;;;;;;4945404;29;20027;-56
2022/04/07 11:15:47;;;;;;;47.40;42.70;;;;;;;;;;4944350;29;20027;-57
2022/04/07 11:18:26;;;;;;;54.80;49.00;;;;;;;;;;4945976;29;20313;-58
2022/04/07 11:21:02;;;;;;;56.83;50.97;;;;;;;;;;4933409;29;20027;-53
2022/04/07 11:23:46;;;;;;;56.53;50.58;;;;;;;;;;4959562;28;20047;-54
2022/04/07 11:26:12;;;;;;;43.92;39.80;;;;;;;;;;4954386;28;20037;-55
2022/04/07 11:28:38;;;;;;;78.10;65.95;;;;;;;;;;4950512;29;20035;-53
2022/04/07 11:31:04;;;;;;;84.55;70.00;;;;;;;;;;4947143;28;20034;-57
2022/04/07 11:33:35;;;;;;;82.57;68.15;;;;;;;;;;4946729;29;20050;-57
2022/04/07 11:36:00;;;;;;;86.97;70.95;;;;;;;;;;4946948;29;20023;-56
2022/04/07 11:38:26;;;;;;;82.05;68.57;;;;;;;;;;4946051;29;20119;-57
2022/04/07 11:41:00;;;;;;;54.47;48.97;;;;;;;;;;4946292;29;20042;-58
2022/04/07 11:43:26;;;;;;;58.15;52.15;;;;;;;;;;4953751;28;20058;-58
2022/04/07 11:45:52;;;;;;;63.97;57.27;;;;;;;;;;4951537;28;20038;-57
2022/04/07 11:48:17;;;;;;;66.95;57.97;;;;;;;;;;4945172;29;20283;-57
2022/04/07 11:50:42;;;;;;;48.60;43.80;;;;;;;;;;4945460;28;20039;-57
2022/04/07 11:53:08;;;;;;;85.87;71.63;;;;;;;;;;4945673;29;20023;-58
2022/04/07 11:55:33;;;;;;;34.40;31.17;;;;;;;;;;4944981;29;21101;-57
2022/04/07 11:57:58;;;;;;;65.90;58.70;;;;;;;;;;4945036;29;20332;-58
2022/04/07 12:00:28;;;;;;;101.32;79.18;;;;;;;;;;4945162;29;20274;-53
2022/04/07 12:02:59;;;;;;;98.57;77.17;;;;;;;;;;4949209;28;20057;-57
2022/04/07 12:05:24;;;;;;;92.57;74.82;;;;;;;;;;4946159;28;20995;-57
2022/04/07 12:07:50;;;;;;;98.20;77.17;;;;;;;;;;4928807;29;20126;-57
2022/04/07 12:10:15;;;;;;;105.03;81.03;;;;;;;;;;4945699;29;20826;-55
2022/04/07 12:12:41;;;;;;;113.80;85.13;;;;;;;;;;4928637;29;20442;-57
2022/04/07 12:15:07;;;;;;;123.70;89.32;;;;;;;;;;4922955;29;20398;-56
2022/04/07 12:17:33;;;;;;;64.45;57.38;;;;;;;;;;4934573;28;20121;-55
2022/04/07 12:19:58;;;;;;;53.72;48.22;;;;;;;;;;4943178;28;20117;-57
2022/04/07 12:22:28;;;;;;;63.75;56.90;;;;;;;;;;4927787;28;20447;-54
2022/04/07 12:24:53;;;;;;;;;;;;;;;;;;4943504;28;20502;-59
2022/04/07 12:27:28;;;;;;;67.05;59.10;;;;;;;;;;4944752;28;20451;-57
2022/04/07 12:29:54;;;;;;;47.60;43.03;;;;;;;;;;4944669;28;20027;-57
2022/04/07 12:32:19;;;;;;;28.33;25.53;;;;;;;;;;4944111;28;20616;-57
2022/04/07 12:34:50;;;;;;;56.93;51.03;;;;;;;;;;4914202;28;20322;-58
2022/04/07 12:37:36;;;;;;;57.13;51.28;;;;;;;;;;4944877;28;20357;-58
2022/04/07 12:40:01;;;;;;;66.35;59.03;;;;;;;;;;4945405;29;20042;-56
2022/04/07 12:42:27;;;;;;;88.88;72.68;;;;;;;;;;4944194;28;20039;-56
2022/04/07 12:45:05;;;;;;;75.87;64.83;;;;;;;;;;4961434;28;20406;-58
2022/04/07 12:47:30;;;;;;;98.93;77.97;;;;;;;;;;4927796;29;20275;-57
2022/04/07 12:49:56;;;;;;;70.90;62.00;;;;;;;;;;4945392;29;20034;-59
2022/04/07 12:52:25;;;;;;;84.68;69.65;;;;;;;;;;4928609;29;20285;-58
2022/04/07 12:54:57;;;;;;;68.40;60.65;;;;;;;;;;4924830;29;20110;-55
2022/04/07 12:57:28;;;;;;;68.18;60.67;;;;;;;;;;4917410;29;20063;-58
2022/04/07 12:59:55;;;;;;;87.32;71.72;;;;;;;;;;4925578;29;20039;-59
2022/04/07 13:02:20;;;;;;;104.70;80.10;;;;;;;;;;4941116;29;20200;-58
2022/04/07 13:04:49;;;;;;;86.03;70.57;;;;;;;;;;4949560;28;20141;-56
2022/04/07 13:07:15;;;;;;;113.78;84.72;;;;;;;;;;4953302;29;20027;-56
2022/04/07 13:09:40;;;;;;;78.97;67.03;;;;;;;;;;4956240;29;20019;-55
2022/04/07 13:12:06;;;;;;;91.95;72.40;;;;;;;;;;4952286;29;20055;-59
2022/04/07 13:14:32;;;;;;;78.25;65.28;;;;;;;;;;4944882;28;20039;-58
2022/04/07 13:16:57;;;;;;;96.47;75.60;;;;;;;;;;4944434;29;20027;-57
2022/04/07 13:19:22;;;;;;;105.85;80.47;;;;;;;;;;4945635;28;20038;-59
2022/04/07 13:21:48;;;;;;;101.07;77.55;;;;;;;;;;4944023;28;20494;-55
2022/04/07 13:24:13;;;;;;;103.68;79.18;;;;;;;;;;4944771;28;20085;-55
2022/04/07 13:26:38;;;;;;;75.15;61.47;;;;;;;;;;4946997;28;20049;-56
2022/04/07 13:29:03;;;;;;;108.57;82.47;;;;;;;;;;4944644;28;20438;-58
2022/04/07 13:31:29;;;;;;;115.47;83.70;;;;;;;;;;4944536;28;20282;-53
2022/04/07 13:33:54;;;;;;;119.25;85.80;;;;;;;;;;4944792;28;20023;-54
2022/04/07 13:36:19;;;;;;;123.43;87.80;;;;;;;;;;4944592;28;20388;-57
2022/04/07 13:38:44;;;;;;;62.60;53.78;;;;;;;;;;4943650;28;20019;-55
2022/04/07 13:41:10;;;;;;;122.15;87.68;;;;;;;;;;4943619;28;20023;-55
2022/04/07 13:43:36;;;;;;;131.02;92.15;;;;;;;;;;4944501;28;20081;-58
2022/04/07 13:46:01;;;;;;;162.57;105.43;;;;;;;;;;4943871;28;20027;-54
2022/04/07 13:48:27;;;;;;;238.55;131.48;;;;;;;;;;4945118;28;20028;-55
2022/04/07 13:50:52;;;;;;;289.98;154.13;;;;;;;;;;4947783;28;20114;-54
2022/04/07 13:53:18;;;;;;;367.93;192.67;;;;;;;;;;4947808;28;20161;-57
2022/04/07 13:55:44;;;;;;;411.67;222.20;;;;;;;;;;4947820;29;20270;-56
2022/04/07 13:58:10;;;;;;;448.90;252.27;;;;;;;;;;4948271;29;20027;-53
2022/04/07 14:00:35;;;;;;;555.22;345.77;;;;;;;;;;4914843;29;20023;-56
2022/04/07 14:03:00;;;;;;;354.42;192.70;;;;;;;;;;4950842;28;20023;-54
2022/04/07 14:05:26;;;;;;;474.85;275.35;;;;;;;;;;4959743;28;20024;-58
2022/04/07 14:07:51;;;;;;;685.67;500.40;;;;;;;;;;4948248;29;20110;-57
2022/04/07 14:10:17;;;;;;;508.35;301.05;;;;;;;;;;4947853;29;20027;-59
2022/04/07 14:12:42;;;;;;;551.55;340.75;;;;;;;;;;4947561;29;20613;-55
2022/04/07 14:15:07;;;;;;;549.47;342.63;;;;;;;;;;4925558;29;20035;-55